Sable — YJTH8 — position and weather

sailwx.info

Track history (hours):
 
Tides and Currents Weather Stations Pressure Air Temp Water Temp Dewpoint Dewpoint Depression Visibility Wind Speed Wind Dir Waves Ship Positions

Sable

Last reported at 2018-May-15 14:19 UTC. Time now 2018-Jul-20 16:33 UTC.
Position N 10°17' W 061°40'.
Warning: this ship's position is months out of date.

Length 92 m; draft 4.5 m.

Type: . MMSI: 577159000.

Date/timePositionNaut miles runAvg speedWind from/ knotsBaromVisibWave heightAir tempDewpointWater temp
2018-May-15 14:19N 10°17' W 061°40'20 7.4
2018-May-15 11:37N 10°18' W 062°01'  
2018-May-13 00:31N 10°20' W 061°55'110.9
2018-May-13 00:27N 10°20' W 061°54'511.0
2018-May-13 00:00N 10°20' W 061°50'510.4
2018-May-12 23:30N 10°18' W 061°45'5 9.9
2018-May-12 23:01N 10°17' W 061°40'0 0.4
2018-May-12 22:30N 10°17' W 061°40'1 1.2
2018-May-12 22:00N 10°17' W 061°39'2 0.1
2018-May-12 10:56N 10°15' W 061°38'2 0.1
2018-May-11 10:09N 10°17' W 061°39'0 3.2
2018-May-11 10:00N 10°18' W 061°39'3 5.8
2018-May-11 09:30N 10°21' W 061°39'2 4.9
2018-May-11 09:00N 10°23' W 061°39'2 4.4
2018-May-11 08:30N 10°25' W 061°39'2 4.4
2018-May-11 08:00N 10°27' W 061°39'2 3.9
2018-May-11 07:30N 10°29' W 061°39'2 4.1
2018-May-11 07:00N 10°31' W 061°39'2 4.2
2018-May-11 06:30N 10°33' W 061°39'2 4.4
2018-May-11 06:00N 10°36' W 061°38'2 5.0
2018-May-11 05:30N 10°38' W 061°38'2 4.7
2018-May-11 05:00N 10°40' W 061°38'0 0.5
2018-May-11 04:29N 10°41' W 061°38'0 0.0
2018-May-11 03:59N 10°41' W 061°38'0 0.0
2018-May-11 03:29N 10°41' W 061°38'0 0.0
2018-May-11 02:59N 10°41' W 061°38'0 0.0
2018-May-11 02:29N 10°41' W 061°38'0 0.0
2018-May-11 01:59N 10°41' W 061°38'0 0.0
2018-May-11 01:29N 10°41' W 061°38'0 0.0
2018-May-11 00:59N 10°41' W 061°38'0 0.0
2018-May-11 00:29N 10°41' W 061°38'0 0.0
2018-May-10 23:59N 10°41' W 061°38'0 0.0
2018-May-10 23:29N 10°41' W 061°38'0 0.0
2018-May-10 22:59N 10°41' W 061°38'0 0.0
2018-May-10 22:29N 10°41' W 061°38'0 0.0
2018-May-10 21:59N 10°41' W 061°38'0 0.0
2018-May-10 21:29N 10°41' W 061°38'0 0.0
2018-May-10 20:59N 10°41' W 061°38'0 0.0
2018-May-10 20:29N 10°41' W 061°38'0 0.0
2018-May-10 19:56N 10°41' W 061°38'0 0.0
2018-May-10 19:29N 10°41' W 061°38'0 0.0
2018-May-10 18:59N 10°41' W 061°38'0 0.0
2018-May-10 18:29N 10°41' W 061°38'0 0.0
2018-May-10 17:59N 10°41' W 061°38'0 0.0
2018-May-10 17:26N 10°41' W 061°38'1 2.6
2018-May-10 17:01N 10°40' W 061°38'1 1.5
2018-May-10 16:24N 10°39' W 061°38'0 0.0
2018-May-10 15:57N 10°39' W 061°38'0 0.0
2018-May-10 15:30N 10°39' W 061°38'0 0.1
2018-May-10 15:00N 10°39' W 061°38'0 0.0
2018-May-10 14:30N 10°39' W 061°38'0 0.0
2018-May-10 14:00N 10°39' W 061°38'0 0.0
2018-May-10 13:30N 10°39' W 061°38'0 0.1
2018-May-10 13:00N 10°39' W 061°38'0 0.0
2018-May-10 12:30N 10°39' W 061°38'0 0.0
2018-May-10 12:00N 10°39' W 061°38'0 0.0
2018-May-10 11:30N 10°39' W 061°38'0 0.0
2018-May-10 11:00N 10°39' W 061°38'0 0.0
2018-May-10 10:30N 10°39' W 061°38'0 0.0
2018-May-10 10:00N 10°39' W 061°38'0 0.0
2018-May-10 09:30N 10°39' W 061°38'0 0.0
2018-May-10 09:00N 10°39' W 061°38'0 0.0
2018-May-10 08:30N 10°39' W 061°38'0 0.0
2018-May-10 08:00N 10°39' W 061°38'0 0.0
2018-May-10 07:30N 10°39' W 061°38'0 0.0
2018-May-10 07:00N 10°39' W 061°38'0 0.0
2018-May-10 06:30N 10°39' W 061°38'0 0.0
2018-May-10 06:00N 10°39' W 061°38'0 0.0
2018-May-10 05:30N 10°39' W 061°38'0 0.0
2018-May-10 05:00N 10°39' W 061°38'0 0.0
2018-May-10 04:30N 10°39' W 061°38'0 0.0
2018-May-10 04:00N 10°39' W 061°38'0 0.0
2018-May-10 03:30N 10°39' W 061°38'0 0.0
2018-May-10 03:00N 10°39' W 061°38'0 0.0
2018-May-10 02:30N 10°39' W 061°38'0 0.0
2018-May-10 02:00N 10°39' W 061°38'0 0.0
2018-May-10 01:30N 10°39' W 061°38'0 0.0
2018-May-10 01:00N 10°39' W 061°38'0 0.0
2018-May-10 00:30N 10°39' W 061°38'0 0.0
2018-May-10 00:00N 10°39' W 061°38'0 0.0
2018-May-09 23:30N 10°39' W 061°38'0 0.0
2018-May-09 23:00N 10°39' W 061°38'0 0.0
2018-May-09 22:30N 10°39' W 061°38'0 0.0
2018-May-09 21:57N 10°39' W 061°38'0 0.0
2018-May-09 21:30N 10°39' W 061°38'0 0.0
2018-May-09 20:51N 10°39' W 061°38'0 0.0
2018-May-09 20:30N 10°39' W 061°38'0 0.0
2018-May-09 20:00N 10°39' W 061°38'0 0.0
2018-May-09 19:30N 10°39' W 061°38'0 0.0
2018-May-09 19:00N 10°39' W 061°38'0 0.0
2018-May-09 18:30N 10°39' W 061°38'0 0.0
2018-May-09 18:00N 10°39' W 061°38'0 0.0
2018-May-09 17:30N 10°39' W 061°38'0 0.0
2018-May-09 17:00N 10°39' W 061°38'0 0.0
2018-May-09 16:30N 10°39' W 061°38'0 0.0
2018-May-09 16:00N 10°39' W 061°38'0 0.0
2018-May-09 15:30N 10°39' W 061°38'0 0.0
2018-May-09 15:00N 10°39' W 061°38'0 0.1
2018-May-09 14:30N 10°39' W 061°38'0 0.0
2018-May-09 14:00N 10°39' W 061°38'0 0.0
2018-May-09 13:30N 10°39' W 061°38'0 0.0
2018-May-09 13:00N 10°39' W 061°38'0 0.0
2018-May-09 12:30N 10°39' W 061°38'0 0.0
2018-May-09 12:00N 10°39' W 061°38'0 0.0
2018-May-09 11:30N 10°39' W 061°38'0 0.0
2018-May-09 11:00N 10°39' W 061°38'0 0.0
2018-May-09 10:30N 10°39' W 061°38'0 0.0
2018-May-09 10:00N 10°39' W 061°38'0 0.0
2018-May-09 09:30N 10°39' W 061°38'0 0.0
2018-May-09 09:00N 10°39' W 061°38'0 0.0
2018-May-09 08:30N 10°39' W 061°38'0 0.0
2018-May-09 08:00N 10°39' W 061°38'0 0.0
2018-May-09 07:30N 10°39' W 061°38'0 0.0
2018-May-09 07:00N 10°39' W 061°38'0 0.0
2018-May-09 06:30N 10°39' W 061°38'0 0.0
2018-May-09 06:00N 10°39' W 061°38'0 0.0
2018-May-09 05:30N 10°39' W 061°38'0 0.0
2018-May-09 05:00N 10°39' W 061°38'0 0.0
2018-May-09 04:30N 10°39' W 061°38'0 0.0
2018-May-09 04:00N 10°39' W 061°38'0 0.1
2018-May-09 03:30N 10°39' W 061°38'0 0.0
2018-May-09 03:00N 10°39' W 061°38'0 0.0
2018-May-09 02:30N 10°39' W 061°38'0 0.0
2018-May-09 02:00N 10°39' W 061°38'0 0.0
2018-May-09 01:30N 10°39' W 061°38'0 0.0
2018-May-09 01:00N 10°39' W 061°38'0 0.0
2018-May-09 00:30N 10°39' W 061°38'0 0.0
2018-May-09 00:00N 10°39' W 061°38'0 0.1
2018-May-08 23:30N 10°39' W 061°38'0 0.0
2018-May-08 23:00N 10°39' W 061°38'0 0.0
2018-May-08 22:30N 10°39' W 061°38'0 0.0
2018-May-08 21:57N 10°39' W 061°38'0 0.0
2018-May-08 21:30N 10°39' W 061°38'0 0.1
2018-May-08 21:00N 10°39' W 061°38'0 0.0
2018-May-08 20:30N 10°39' W 061°38'0 0.1
2018-May-08 20:00N 10°39' W 061°38'0 0.1
2018-May-08 19:30N 10°39' W 061°38'0 0.0
2018-May-08 19:00N 10°39' W 061°38'0 0.1
2018-May-08 18:30N 10°39' W 061°38'0 0.0
2018-May-08 18:00N 10°39' W 061°38'0 0.0
2018-May-08 17:30N 10°39' W 061°38'0 0.0
2018-May-08 17:00N 10°39' W 061°38'0 0.0
2018-May-08 16:30N 10°39' W 061°38'0 0.0
2018-May-08 16:00N 10°39' W 061°38'0 0.1
2018-May-08 15:30N 10°39' W 061°37'0 0.1
2018-May-08 15:00N 10°39' W 061°38'0 0.0
2018-May-08 14:30N 10°39' W 061°38'0 0.0
2018-May-08 14:00N 10°39' W 061°38'0 0.0
2018-May-08 13:30N 10°39' W 061°38'0 0.0
2018-May-08 13:00N 10°39' W 061°37'0 0.0
2018-May-08 12:30N 10°39' W 061°37'0 0.0
2018-May-08 12:00N 10°39' W 061°37'0 0.0
2018-May-08 11:30N 10°39' W 061°37'0 0.0
2018-May-08 11:00N 10°39' W 061°37'0 0.0
2018-May-08 10:30N 10°39' W 061°37'0 0.1
2018-May-08 10:00N 10°39' W 061°38'0 0.1
2018-May-08 09:30N 10°39' W 061°37'0 0.0
2018-May-08 09:00N 10°39' W 061°37'0 0.0
2018-May-08 08:30N 10°39' W 061°37'0 0.0
2018-May-08 08:00N 10°39' W 061°37'0 0.0
2018-May-08 07:30N 10°39' W 061°37'0 0.0
2018-May-08 07:00N 10°39' W 061°37'0 0.0
2018-May-08 06:30N 10°39' W 061°37'0 0.0
2018-May-08 06:00N 10°39' W 061°37'0 0.0
2018-May-08 05:30N 10°39' W 061°37'0 0.0
2018-May-08 05:00N 10°39' W 061°37'0 0.0
2018-May-08 04:30N 10°39' W 061°37'0 0.0
2018-May-08 04:00N 10°39' W 061°37'0 0.0
2018-May-08 03:30N 10°39' W 061°37'0 0.0
2018-May-08 03:00N 10°39' W 061°37'0 0.0
2018-May-08 02:30N 10°39' W 061°37'0 0.0
2018-May-08 02:00N 10°39' W 061°37'0 0.0
2018-May-08 01:30N 10°39' W 061°37'0 0.0
2018-May-08 01:00N 10°39' W 061°37'0 0.0
2018-May-08 00:30N 10°39' W 061°37'0 0.1
2018-May-08 00:00N 10°39' W 061°38'0 0.0
2018-May-07 23:30N 10°39' W 061°38'0 0.0
2018-May-07 23:00N 10°39' W 061°38'0 0.0
2018-May-07 22:30N 10°39' W 061°38'0 0.0
2018-May-07 22:00N 10°39' W 061°38'0 0.0
2018-May-07 21:30N 10°39' W 061°38'0 0.0
2018-May-07 21:00N 10°39' W 061°38'0 0.0
2018-May-07 20:30N 10°39' W 061°38'0 0.0
2018-May-07 20:00N 10°39' W 061°38'0 0.0
2018-May-07 19:30N 10°39' W 061°38'0 0.0
2018-May-07 19:00N 10°39' W 061°38'0 0.0
2018-May-07 18:30N 10°39' W 061°38'0 0.0
2018-May-07 18:00N 10°39' W 061°38'0 0.0
2018-May-07 17:30N 10°39' W 061°38'0 0.1
2018-May-07 17:00N 10°39' W 061°37'0 0.0
2018-May-07 16:30N 10°39' W 061°37'0 0.0
2018-May-07 16:00N 10°39' W 061°38'0 0.0
2018-May-07 15:30N 10°39' W 061°38'0 0.0
2018-May-07 14:57N 10°39' W 061°38'0 0.1
2018-May-07 14:30N 10°39' W 061°37'0 0.1
2018-May-07 14:00N 10°39' W 061°37'0 0.1
2018-May-07 13:27N 10°39' W 061°37'0 0.0
2018-May-07 13:00N 10°39' W 061°37'0 0.0
2018-May-07 12:30N 10°39' W 061°37'0 0.0
2018-May-07 12:00N 10°39' W 061°37'0 0.0
2018-May-07 11:30N 10°39' W 061°37'0 0.0
2018-May-07 11:00N 10°39' W 061°37'0 0.0
2018-May-07 10:30N 10°39' W 061°37'0 0.0
2018-May-07 10:00N 10°39' W 061°37'0 0.0
2018-May-07 09:27N 10°39' W 061°37'0 0.0
2018-May-07 09:00N 10°39' W 061°37'0 0.0
2018-May-07 08:30N 10°39' W 061°37'0 0.1
2018-May-07 08:00N 10°39' W 061°37'0 0.0
2018-May-07 07:30N 10°39' W 061°37'0 0.0
2018-May-07 07:00N 10°39' W 061°37'0 0.0
2018-May-07 06:30N 10°39' W 061°37'0 0.0
2018-May-07 06:00N 10°39' W 061°37'0 0.0
2018-May-07 05:30N 10°39' W 061°37'0 0.0
2018-May-07 05:00N 10°39' W 061°37'0 0.0
2018-May-07 04:30N 10°39' W 061°37'0 0.0
2018-May-07 04:00N 10°39' W 061°37'0 0.0
2018-May-07 03:30N 10°39' W 061°37'0 0.0
2018-May-07 03:00N 10°39' W 061°37'0 0.0
2018-May-07 02:30N 10°39' W 061°37'0 0.0
2018-May-07 02:00N 10°39' W 061°37'0 0.0
2018-May-07 01:30N 10°39' W 061°37'0 0.0
2018-May-07 01:00N 10°39' W 061°37'0 0.0
2018-May-07 00:30N 10°39' W 061°37'0 0.0
2018-May-07 00:00N 10°39' W 061°37'0 0.0
2018-May-06 23:30N 10°39' W 061°37'0 0.0
2018-May-06 23:00N 10°39' W 061°37'0 0.0
2018-May-06 22:30N 10°39' W 061°37'0 0.0
2018-May-06 22:00N 10°39' W 061°37'0 0.0
2018-May-06 21:30N 10°39' W 061°37'0 0.0
2018-May-06 21:00N 10°39' W 061°37'0 0.0
2018-May-06 20:30N 10°39' W 061°37'0 0.1
2018-May-06 20:00N 10°39' W 061°37'0 0.0
2018-May-06 19:30N 10°39' W 061°37'0 0.1
2018-May-06 19:00N 10°39' W 061°37'0 0.5
2018-May-06 18:30N 10°39' W 061°38'0 0.2
2018-May-06 18:00N 10°39' W 061°38'0 0.0
2018-May-06 17:30N 10°39' W 061°38'0 0.0
2018-May-06 17:00N 10°39' W 061°38'0 0.0
2018-May-06 16:30N 10°39' W 061°38'0 0.0
2018-May-06 16:00N 10°39' W 061°38'0 0.0
2018-May-06 15:30N 10°39' W 061°38'0 0.0
2018-May-06 15:00N 10°39' W 061°38'0 0.0
2018-May-06 14:30N 10°39' W 061°38'0 0.0
2018-May-06 14:00N 10°39' W 061°38'0 0.2
2018-May-06 13:30N 10°39' W 061°38'0 0.1
2018-May-06 13:00N 10°39' W 061°38'1 1.0
2018-May-06 12:28N 10°39' W 061°37'0 0.0
2018-May-06 11:58N 10°39' W 061°37'0 0.0
2018-May-06 11:28N 10°39' W 061°37'0 0.0
2018-May-06 10:55N 10°39' W 061°37'0 0.0
2018-May-06 10:28N 10°39' W 061°37'0 0.0
2018-May-06 09:58N 10°39' W 061°37'0 0.0
2018-May-06 09:28N 10°39' W 061°37'0 0.0
2018-May-06 08:58N 10°39' W 061°37'0 0.0
2018-May-06 08:28N 10°39' W 061°37'0 0.0
2018-May-06 07:58N 10°39' W 061°37'0 0.0
2018-May-06 07:28N 10°39' W 061°37'0 0.0
2018-May-06 06:58N 10°39' W 061°37'0 0.0
2018-May-06 06:28N 10°39' W 061°37'0 0.0
2018-May-06 05:55N 10°39' W 061°37'0 0.0
2018-May-06 05:28N 10°39' W 061°37'0 0.0
2018-May-06 04:58N 10°39' W 061°37'0 0.0
2018-May-06 04:28N 10°39' W 061°37'0 0.0
2018-May-06 03:58N 10°39' W 061°37'0 0.0
2018-May-06 03:28N 10°39' W 061°37'0 0.0
2018-May-06 02:58N 10°39' W 061°37'0 0.0
2018-May-06 02:28N 10°39' W 061°37'0 0.0
2018-May-06 01:58N 10°39' W 061°37'0 0.0
2018-May-06 01:28N 10°39' W 061°37'0 0.0
2018-May-06 00:58N 10°39' W 061°37'0 0.0
2018-May-06 00:28N 10°39' W 061°37'0 0.1
2018-May-05 23:58N 10°39' W 061°37'1 2.1
2018-May-05 23:30N 10°40' W 061°38'1 2.5
2018-May-05 22:59N 10°41' W 061°39'0 0.0
2018-May-05 22:29N 10°41' W 061°39'0 0.0
2018-May-05 21:59N 10°41' W 061°39'0 0.0
2018-May-05 21:29N 10°41' W 061°39'0 0.0
2018-May-05 20:59N 10°41' W 061°39'0 0.0
2018-May-05 20:29N 10°41' W 061°39'0 0.0
2018-May-05 19:59N 10°41' W 061°39'0 0.0
2018-May-05 19:29N 10°41' W 061°39'0 0.0
2018-May-05 18:56N 10°41' W 061°39'0 0.0
2018-May-05 18:26N 10°41' W 061°39'0 0.0
2018-May-05 17:59N 10°41' W 061°39'0 0.0
2018-May-05 17:29N 10°41' W 061°39'0 0.0
2018-May-05 16:56N 10°41' W 061°39'0 0.0
2018-May-05 16:29N 10°41' W 061°39'0 0.0
2018-May-05 15:59N 10°41' W 061°39'0 0.0
2018-May-05 15:29N 10°41' W 061°39'0 0.0
2018-May-05 14:59N 10°41' W 061°39'0 0.0
2018-May-05 14:26N 10°41' W 061°39'  
Track history (hours):
 
Tides and Currents Weather Stations Pressure Air Temp Water Temp Dewpoint Dewpoint Depression Visibility Wind Speed Wind Dir Waves Ship Positions

Sable

Last reported at 2018-May-15 14:19 UTC. Time now 2018-Jul-20 16:33 UTC.
Position N 10°17' W 061°40'.
Warning: this ship's position is months out of date.

Length 92 m; draft 4.5 m.

Type: . MMSI: 577159000.

Date/timePositionNaut miles runAvg speedWind from/ knotsBaromVisibWave heightAir tempDewpointWater temp
2018-May-15 14:19N 10°17' W 061°40'20 7.4
2018-May-15 11:37N 10°18' W 062°01'  
2018-May-13 00:31N 10°20' W 061°55'110.9
2018-May-13 00:27N 10°20' W 061°54'511.0
2018-May-13 00:00N 10°20' W 061°50'510.4
2018-May-12 23:30N 10°18' W 061°45'5 9.9
2018-May-12 23:01N 10°17' W 061°40'0 0.4
2018-May-12 22:30N 10°17' W 061°40'1 1.2
2018-May-12 22:00N 10°17' W 061°39'2 0.1
2018-May-12 10:56N 10°15' W 061°38'2 0.1
2018-May-11 10:09N 10°17' W 061°39'0 3.2
2018-May-11 10:00N 10°18' W 061°39'3 5.8
2018-May-11 09:30N 10°21' W 061°39'2 4.9
2018-May-11 09:00N 10°23' W 061°39'2 4.4
2018-May-11 08:30N 10°25' W 061°39'2 4.4
2018-May-11 08:00N 10°27' W 061°39'2 3.9
2018-May-11 07:30N 10°29' W 061°39'2 4.1
2018-May-11 07:00N 10°31' W 061°39'2 4.2
2018-May-11 06:30N 10°33' W 061°39'2 4.4
2018-May-11 06:00N 10°36' W 061°38'2 5.0
2018-May-11 05:30N 10°38' W 061°38'2 4.7
2018-May-11 05:00N 10°40' W 061°38'0 0.5
2018-May-11 04:29N 10°41' W 061°38'0 0.0
2018-May-11 03:59N 10°41' W 061°38'0 0.0
2018-May-11 03:29N 10°41' W 061°38'0 0.0
2018-May-11 02:59N 10°41' W 061°38'0 0.0
2018-May-11 02:29N 10°41' W 061°38'0 0.0
2018-May-11 01:59N 10°41' W 061°38'0 0.0
2018-May-11 01:29N 10°41' W 061°38'0 0.0
2018-May-11 00:59N 10°41' W 061°38'0 0.0
2018-May-11 00:29N 10°41' W 061°38'0 0.0
2018-May-10 23:59N 10°41' W 061°38'0 0.0
2018-May-10 23:29N 10°41' W 061°38'0 0.0
2018-May-10 22:59N 10°41' W 061°38'0 0.0
2018-May-10 22:29N 10°41' W 061°38'0 0.0
2018-May-10 21:59N 10°41' W 061°38'0 0.0
2018-May-10 21:29N 10°41' W 061°38'0 0.0
2018-May-10 20:59N 10°41' W 061°38'0 0.0
2018-May-10 20:29N 10°41' W 061°38'0 0.0
2018-May-10 19:56N 10°41' W 061°38'0 0.0
2018-May-10 19:29N 10°41' W 061°38'0 0.0
2018-May-10 18:59N 10°41' W 061°38'0 0.0
2018-May-10 18:29N 10°41' W 061°38'0 0.0
2018-May-10 17:59N 10°41' W 061°38'0 0.0
2018-May-10 17:26N 10°41' W 061°38'1 2.6
2018-May-10 17:01N 10°40' W 061°38'1 1.5
2018-May-10 16:24N 10°39' W 061°38'0 0.0
2018-May-10 15:57N 10°39' W 061°38'0 0.0
2018-May-10 15:30N 10°39' W 061°38'0 0.1
2018-May-10 15:00N 10°39' W 061°38'0 0.0
2018-May-10 14:30N 10°39' W 061°38'0 0.0
2018-May-10 14:00N 10°39' W 061°38'0 0.0
2018-May-10 13:30N 10°39' W 061°38'0 0.1
2018-May-10 13:00N 10°39' W 061°38'0 0.0
2018-May-10 12:30N 10°39' W 061°38'0 0.0
2018-May-10 12:00N 10°39' W 061°38'0 0.0
2018-May-10 11:30N 10°39' W 061°38'0 0.0
2018-May-10 11:00N 10°39' W 061°38'0 0.0
2018-May-10 10:30N 10°39' W 061°38'0 0.0
2018-May-10 10:00N 10°39' W 061°38'0 0.0
2018-May-10 09:30N 10°39' W 061°38'0 0.0
2018-May-10 09:00N 10°39' W 061°38'0 0.0
2018-May-10 08:30N 10°39' W 061°38'0 0.0
2018-May-10 08:00N 10°39' W 061°38'0 0.0
2018-May-10 07:30N 10°39' W 061°38'0 0.0
2018-May-10 07:00N 10°39' W 061°38'0 0.0
2018-May-10 06:30N 10°39' W 061°38'0 0.0
2018-May-10 06:00N 10°39' W 061°38'0 0.0
2018-May-10 05:30N 10°39' W 061°38'0 0.0
2018-May-10 05:00N 10°39' W 061°38'0 0.0
2018-May-10 04:30N 10°39' W 061°38'0 0.0
2018-May-10 04:00N 10°39' W 061°38'0 0.0
2018-May-10 03:30N 10°39' W 061°38'0 0.0
2018-May-10 03:00N 10°39' W 061°38'0 0.0
2018-May-10 02:30N 10°39' W 061°38'0 0.0
2018-May-10 02:00N 10°39' W 061°38'0 0.0
2018-May-10 01:30N 10°39' W 061°38'0 0.0
2018-May-10 01:00N 10°39' W 061°38'0 0.0
2018-May-10 00:30N 10°39' W 061°38'0 0.0
2018-May-10 00:00N 10°39' W 061°38'0 0.0
2018-May-09 23:30N 10°39' W 061°38'0 0.0
2018-May-09 23:00N 10°39' W 061°38'0 0.0
2018-May-09 22:30N 10°39' W 061°38'0 0.0
2018-May-09 21:57N 10°39' W 061°38'0 0.0
2018-May-09 21:30N 10°39' W 061°38'0 0.0
2018-May-09 20:51N 10°39' W 061°38'0 0.0
2018-May-09 20:30N 10°39' W 061°38'0 0.0
2018-May-09 20:00N 10°39' W 061°38'0 0.0
2018-May-09 19:30N 10°39' W 061°38'0 0.0
2018-May-09 19:00N 10°39' W 061°38'0 0.0
2018-May-09 18:30N 10°39' W 061°38'0 0.0
2018-May-09 18:00N 10°39' W 061°38'0 0.0
2018-May-09 17:30N 10°39' W 061°38'0 0.0
2018-May-09 17:00N 10°39' W 061°38'0 0.0
2018-May-09 16:30N 10°39' W 061°38'0 0.0
2018-May-09 16:00N 10°39' W 061°38'0 0.0
2018-May-09 15:30N 10°39' W 061°38'0 0.0
2018-May-09 15:00N 10°39' W 061°38'0 0.1
2018-May-09 14:30N 10°39' W 061°38'0 0.0
2018-May-09 14:00N 10°39' W 061°38'0 0.0
2018-May-09 13:30N 10°39' W 061°38'0 0.0
2018-May-09 13:00N 10°39' W 061°38'0 0.0
2018-May-09 12:30N 10°39' W 061°38'0 0.0
2018-May-09 12:00N 10°39' W 061°38'0 0.0
2018-May-09 11:30N 10°39' W 061°38'0 0.0
2018-May-09 11:00N 10°39' W 061°38'0 0.0
2018-May-09 10:30N 10°39' W 061°38'0 0.0
2018-May-09 10:00N 10°39' W 061°38'0 0.0
2018-May-09 09:30N 10°39' W 061°38'0 0.0
2018-May-09 09:00N 10°39' W 061°38'0 0.0
2018-May-09 08:30N 10°39' W 061°38'0 0.0
2018-May-09 08:00N 10°39' W 061°38'0 0.0
2018-May-09 07:30N 10°39' W 061°38'0 0.0
2018-May-09 07:00N 10°39' W 061°38'0 0.0
2018-May-09 06:30N 10°39' W 061°38'0 0.0
2018-May-09 06:00N 10°39' W 061°38'0 0.0
2018-May-09 05:30N 10°39' W 061°38'0 0.0
2018-May-09 05:00N 10°39' W 061°38'0 0.0
2018-May-09 04:30N 10°39' W 061°38'0 0.0
2018-May-09 04:00N 10°39' W 061°38'0 0.1
2018-May-09 03:30N 10°39' W 061°38'0 0.0
2018-May-09 03:00N 10°39' W 061°38'0 0.0
2018-May-09 02:30N 10°39' W 061°38'0 0.0
2018-May-09 02:00N 10°39' W 061°38'0 0.0
2018-May-09 01:30N 10°39' W 061°38'0 0.0
2018-May-09 01:00N 10°39' W 061°38'0 0.0
2018-May-09 00:30N 10°39' W 061°38'0 0.0
2018-May-09 00:00N 10°39' W 061°38'0 0.1
2018-May-08 23:30N 10°39' W 061°38'0 0.0
2018-May-08 23:00N 10°39' W 061°38'0 0.0
2018-May-08 22:30N 10°39' W 061°38'0 0.0
2018-May-08 21:57N 10°39' W 061°38'0 0.0
2018-May-08 21:30N 10°39' W 061°38'0 0.1
2018-May-08 21:00N 10°39' W 061°38'0 0.0
2018-May-08 20:30N 10°39' W 061°38'0 0.1
2018-May-08 20:00N 10°39' W 061°38'0 0.1
2018-May-08 19:30N 10°39' W 061°38'0 0.0
2018-May-08 19:00N 10°39' W 061°38'0 0.1
2018-May-08 18:30N 10°39' W 061°38'0 0.0
2018-May-08 18:00N 10°39' W 061°38'0 0.0
2018-May-08 17:30N 10°39' W 061°38'0 0.0
2018-May-08 17:00N 10°39' W 061°38'0 0.0
2018-May-08 16:30N 10°39' W 061°38'0 0.0
2018-May-08 16:00N 10°39' W 061°38'0 0.1
2018-May-08 15:30N 10°39' W 061°37'0 0.1
2018-May-08 15:00N 10°39' W 061°38'0 0.0
2018-May-08 14:30N 10°39' W 061°38'0 0.0
2018-May-08 14:00N 10°39' W 061°38'0 0.0
2018-May-08 13:30N 10°39' W 061°38'0 0.0
2018-May-08 13:00N 10°39' W 061°37'0 0.0
2018-May-08 12:30N 10°39' W 061°37'0 0.0
2018-May-08 12:00N 10°39' W 061°37'0 0.0
2018-May-08 11:30N 10°39' W 061°37'0 0.0
2018-May-08 11:00N 10°39' W 061°37'0 0.0
2018-May-08 10:30N 10°39' W 061°37'0 0.1
2018-May-08 10:00N 10°39' W 061°38'0 0.1
2018-May-08 09:30N 10°39' W 061°37'0 0.0
2018-May-08 09:00N 10°39' W 061°37'0 0.0
2018-May-08 08:30N 10°39' W 061°37'0 0.0
2018-May-08 08:00N 10°39' W 061°37'0 0.0
2018-May-08 07:30N 10°39' W 061°37'0 0.0
2018-May-08 07:00N 10°39' W 061°37'0 0.0
2018-May-08 06:30N 10°39' W 061°37'0 0.0
2018-May-08 06:00N 10°39' W 061°37'0 0.0
2018-May-08 05:30N 10°39' W 061°37'0 0.0
2018-May-08 05:00N 10°39' W 061°37'0 0.0
2018-May-08 04:30N 10°39' W 061°37'0 0.0
2018-May-08 04:00N 10°39' W 061°37'0 0.0
2018-May-08 03:30N 10°39' W 061°37'0 0.0
2018-May-08 03:00N 10°39' W 061°37'0 0.0
2018-May-08 02:30N 10°39' W 061°37'0 0.0
2018-May-08 02:00N 10°39' W 061°37'0 0.0
2018-May-08 01:30N 10°39' W 061°37'0 0.0
2018-May-08 01:00N 10°39' W 061°37'0 0.0
2018-May-08 00:30N 10°39' W 061°37'0 0.1
2018-May-08 00:00N 10°39' W 061°38'0 0.0
2018-May-07 23:30N 10°39' W 061°38'0 0.0
2018-May-07 23:00N 10°39' W 061°38'0 0.0
2018-May-07 22:30N 10°39' W 061°38'0 0.0
2018-May-07 22:00N 10°39' W 061°38'0 0.0
2018-May-07 21:30N 10°39' W 061°38'0 0.0
2018-May-07 21:00N 10°39' W 061°38'0 0.0
2018-May-07 20:30N 10°39' W 061°38'0 0.0
2018-May-07 20:00N 10°39' W 061°38'0 0.0
2018-May-07 19:30N 10°39' W 061°38'0 0.0
2018-May-07 19:00N 10°39' W 061°38'0 0.0
2018-May-07 18:30N 10°39' W 061°38'0 0.0
2018-May-07 18:00N 10°39' W 061°38'0 0.0
2018-May-07 17:30N 10°39' W 061°38'0 0.1
2018-May-07 17:00N 10°39' W 061°37'0 0.0
2018-May-07 16:30N 10°39' W 061°37'0 0.0
2018-May-07 16:00N 10°39' W 061°38'0 0.0
2018-May-07 15:30N 10°39' W 061°38'0 0.0
2018-May-07 14:57N 10°39' W 061°38'0 0.1
2018-May-07 14:30N 10°39' W 061°37'0 0.1
2018-May-07 14:00N 10°39' W 061°37'0 0.1
2018-May-07 13:27N 10°39' W 061°37'0 0.0
2018-May-07 13:00N 10°39' W 061°37'0 0.0
2018-May-07 12:30N 10°39' W 061°37'0 0.0
2018-May-07 12:00N 10°39' W 061°37'0 0.0
2018-May-07 11:30N 10°39' W 061°37'0 0.0
2018-May-07 11:00N 10°39' W 061°37'0 0.0
2018-May-07 10:30N 10°39' W 061°37'0 0.0
2018-May-07 10:00N 10°39' W 061°37'0 0.0
2018-May-07 09:27N 10°39' W 061°37'0 0.0
2018-May-07 09:00N 10°39' W 061°37'0 0.0
2018-May-07 08:30N 10°39' W 061°37'0 0.1
2018-May-07 08:00N 10°39' W 061°37'0 0.0
2018-May-07 07:30N 10°39' W 061°37'0 0.0
2018-May-07 07:00N 10°39' W 061°37'0 0.0
2018-May-07 06:30N 10°39' W 061°37'0 0.0
2018-May-07 06:00N 10°39' W 061°37'0 0.0
2018-May-07 05:30N 10°39' W 061°37'0 0.0
2018-May-07 05:00N 10°39' W 061°37'0 0.0
2018-May-07 04:30N 10°39' W 061°37'0 0.0
2018-May-07 04:00N 10°39' W 061°37'0 0.0
2018-May-07 03:30N 10°39' W 061°37'0 0.0
2018-May-07 03:00N 10°39' W 061°37'0 0.0
2018-May-07 02:30N 10°39' W 061°37'0 0.0
2018-May-07 02:00N 10°39' W 061°37'0 0.0
2018-May-07 01:30N 10°39' W 061°37'0 0.0
2018-May-07 01:00N 10°39' W 061°37'0 0.0
2018-May-07 00:30N 10°39' W 061°37'0 0.0
2018-May-07 00:00N 10°39' W 061°37'0 0.0
2018-May-06 23:30N 10°39' W 061°37'0 0.0
2018-May-06 23:00N 10°39' W 061°37'0 0.0
2018-May-06 22:30N 10°39' W 061°37'0 0.0
2018-May-06 22:00N 10°39' W 061°37'0 0.0
2018-May-06 21:30N 10°39' W 061°37'0 0.0
2018-May-06 21:00N 10°39' W 061°37'0 0.0
2018-May-06 20:30N 10°39' W 061°37'0 0.1
2018-May-06 20:00N 10°39' W 061°37'0 0.0
2018-May-06 19:30N 10°39' W 061°37'0 0.1
2018-May-06 19:00N 10°39' W 061°37'0 0.5
2018-May-06 18:30N 10°39' W 061°38'0 0.2
2018-May-06 18:00N 10°39' W 061°38'0 0.0
2018-May-06 17:30N 10°39' W 061°38'0 0.0
2018-May-06 17:00N 10°39' W 061°38'0 0.0
2018-May-06 16:30N 10°39' W 061°38'0 0.0
2018-May-06 16:00N 10°39' W 061°38'0 0.0
2018-May-06 15:30N 10°39' W 061°38'0 0.0
2018-May-06 15:00N 10°39' W 061°38'0 0.0
2018-May-06 14:30N 10°39' W 061°38'0 0.0
2018-May-06 14:00N 10°39' W 061°38'0 0.2
2018-May-06 13:30N 10°39' W 061°38'0 0.1
2018-May-06 13:00N 10°39' W 061°38'1 1.0
2018-May-06 12:28N 10°39' W 061°37'0 0.0
2018-May-06 11:58N 10°39' W 061°37'0 0.0
2018-May-06 11:28N 10°39' W 061°37'0 0.0
2018-May-06 10:55N 10°39' W 061°37'0 0.0
2018-May-06 10:28N 10°39' W 061°37'0 0.0
2018-May-06 09:58N 10°39' W 061°37'0 0.0
2018-May-06 09:28N 10°39' W 061°37'0 0.0
2018-May-06 08:58N 10°39' W 061°37'0 0.0
2018-May-06 08:28N 10°39' W 061°37'0 0.0
2018-May-06 07:58N 10°39' W 061°37'0 0.0
2018-May-06 07:28N 10°39' W 061°37'0 0.0
2018-May-06 06:58N 10°39' W 061°37'0 0.0
2018-May-06 06:28N 10°39' W 061°37'0 0.0
2018-May-06 05:55N 10°39' W 061°37'0 0.0
2018-May-06 05:28N 10°39' W 061°37'0 0.0
2018-May-06 04:58N 10°39' W 061°37'0 0.0
2018-May-06 04:28N 10°39' W 061°37'0 0.0
2018-May-06 03:58N 10°39' W 061°37'0 0.0
2018-May-06 03:28N 10°39' W 061°37'0 0.0
2018-May-06 02:58N 10°39' W 061°37'0 0.0
2018-May-06 02:28N 10°39' W 061°37'0 0.0
2018-May-06 01:58N 10°39' W 061°37'0 0.0
2018-May-06 01:28N 10°39' W 061°37'0 0.0
2018-May-06 00:58N 10°39' W 061°37'0 0.0
2018-May-06 00:28N 10°39' W 061°37'0 0.1
2018-May-05 23:58N 10°39' W 061°37'1 2.1
2018-May-05 23:30N 10°40' W 061°38'1 2.5
2018-May-05 22:59N 10°41' W 061°39'0 0.0
2018-May-05 22:29N 10°41' W 061°39'0 0.0
2018-May-05 21:59N 10°41' W 061°39'0 0.0
2018-May-05 21:29N 10°41' W 061°39'0 0.0
2018-May-05 20:59N 10°41' W 061°39'0 0.0
2018-May-05 20:29N 10°41' W 061°39'0 0.0
2018-May-05 19:59N 10°41' W 061°39'0 0.0
2018-May-05 19:29N 10°41' W 061°39'0 0.0
2018-May-05 18:56N 10°41' W 061°39'0 0.0
2018-May-05 18:26N 10°41' W 061°39'0 0.0
2018-May-05 17:59N 10°41' W 061°39'0 0.0
2018-May-05 17:29N 10°41' W 061°39'0 0.0
2018-May-05 16:56N 10°41' W 061°39'0 0.0
2018-May-05 16:29N 10°41' W 061°39'0 0.0
2018-May-05 15:59N 10°41' W 061°39'0 0.0
2018-May-05 15:29N 10°41' W 061°39'0 0.0
2018-May-05 14:59N 10°41' W 061°39'0 0.0
2018-May-05 14:26N 10°41' W 061°39'  

Dump ship's entire track history